Time;durP1;ratioP1;P1;durP2;ratioP2;P2;SDS_P1;SDS_P2;PMS_P1;PMS_P2;Temp;Humidity;BMP_temperature;BMP_pressure;BME280_temperature;BME280_humidity;BME280_pressure;Samples;Min_cycle;Max_cycle;Signal;HPM_P1;HPM_P2
2022/05/01 00:00:54;;;;;;;29.50;18.50;;;9.30;92.90;;;;;;5065645;28;20214;-71
2022/05/01 00:03:33;;;;;;;31.20;18.33;;;9.20;92.90;;;;;;5065153;28;20201;-71
2022/05/01 00:06:01;;;;;;;28.05;18.35;;;9.20;93.00;;;;;;5064389;28;20197;-70
2022/05/01 00:08:27;;;;;;;29.08;18.70;;;9.20;93.00;;;;;;5067660;28;20186;-69
2022/05/01 00:10:57;;;;;;;27.73;18.80;;;9.10;93.10;;;;;;5066170;28;20236;-70
2022/05/01 00:13:24;;;;;;;34.28;19.58;;;9.10;93.20;;;;;;5066369;28;20206;-69
2022/05/01 00:15:50;;;;;;;33.03;19.02;;;9.10;93.20;;;;;;5065885;28;20190;-68
2022/05/01 00:18:18;;;;;;;34.40;18.58;;;9.10;93.30;;;;;;5067363;28;20202;-68
2022/05/01 00:20:44;;;;;;;28.67;18.85;;;9.00;93.30;;;;;;5069388;28;20221;-66
2022/05/01 00:23:10;;;;;;;27.55;18.23;;;9.00;93.40;;;;;;5062886;28;21187;-67
2022/05/01 00:25:42;;;;;;;30.48;18.33;;;9.00;93.40;;;;;;5067425;28;20269;-68
2022/05/01 00:28:08;;;;;;;29.58;18.88;;;9.00;93.40;;;;;;5066140;28;20208;-66
2022/05/01 00:30:35;;;;;;;30.98;19.20;;;9.00;93.40;;;;;;5068869;28;20222;-67
2022/05/01 00:38:30;;;;;;;27.42;18.48;;;8.90;93.50;;;;;;5065305;28;21038;-66
2022/05/01 00:40:56;;;;;;;36.78;18.67;;;8.90;93.50;;;;;;5068629;28;20182;-69
2022/05/01 00:43:22;;;;;;;27.80;18.30;;;8.80;93.60;;;;;;5066127;28;20197;-68
2022/05/01 00:45:48;;;;;;;26.33;18.23;;;8.80;93.60;;;;;;5065437;28;20567;-69
2022/05/01 00:48:14;;;;;;;31.67;19.20;;;8.80;93.60;;;;;;5066234;28;20182;-69
2022/05/01 00:50:41;;;;;;;27.50;18.38;;;8.80;93.70;;;;;;5068202;28;20222;-69
2022/05/01 00:53:07;;;;;;;29.13;19.17;;;8.70;93.70;;;;;;5066015;28;20208;-67
2022/05/01 00:55:34;;;;;;;28.95;18.98;;;8.70;93.70;;;;;;5066974;28;20647;-67
2022/05/01 00:58:01;;;;;;;32.38;19.45;;;8.70;93.70;;;;;;5063615;28;20642;-66
2022/05/01 01:00:27;;;;;;;35.58;19.42;;;8.60;93.80;;;;;;5068441;28;20632;-66
2022/05/01 01:02:53;;;;;;;30.25;18.92;;;8.60;93.90;;;;;;5048629;28;20178;-66
2022/05/01 01:05:19;;;;;;;31.77;18.90;;;8.60;93.90;;;;;;5067464;28;20252;-69
2022/05/01 01:07:45;;;;;;;31.48;18.92;;;8.50;93.90;;;;;;5063724;28;20186;-68
2022/05/01 01:10:11;;;;;;;35.22;19.52;;;8.50;94.00;;;;;;5067346;28;20235;-67
2022/05/01 01:12:55;;;;;;;29.23;19.10;;;8.50;94.00;;;;;;5066768;28;20235;-67
2022/05/01 01:15:30;;;;;;;29.45;19.55;;;8.40;94.00;;;;;;5067071;28;20186;-68
2022/05/01 01:17:56;;;;;;;26.60;18.13;;;8.40;94.00;;;;;;5066709;28;20189;-69
2022/05/01 01:20:29;;;;;;;29.02;18.90;;;8.40;94.00;;;;;;5069290;28;20189;-69
2022/05/01 01:23:00;;;;;;;31.80;19.58;;;8.40;94.00;;;;;;5069359;28;20197;-69
2022/05/01 01:25:29;;;;;;;33.35;19.98;;;8.40;94.00;;;;;;5069851;28;20189;-69
2022/05/01 01:27:59;;;;;;;32.20;19.17;;;8.40;94.10;;;;;;5068908;28;20265;-69
2022/05/01 01:33:10;;;;;;;31.42;19.13;;;8.30;94.00;;;;;;5069373;28;20249;-67
2022/05/01 01:35:38;;;;;;;35.30;20.35;;;8.30;94.10;;;;;;5071533;28;20643;-70
2022/05/01 01:38:04;;;;;;;30.58;19.70;;;8.30;94.10;;;;;;5065997;28;20186;-69
2022/05/01 01:40:35;;;;;;;26.70;19.30;;;8.20;94.10;;;;;;5069778;28;20183;-70
2022/05/01 01:43:01;;;;;;;28.75;18.48;;;8.20;94.20;;;;;;5069866;28;20554;-70
2022/05/01 01:45:28;;;;;;;34.90;18.73;;;8.20;94.30;;;;;;5071283;28;20190;-68
2022/05/01 01:47:55;;;;;;;26.60;18.30;;;8.20;94.30;;;;;;5068732;28;20186;-69
2022/05/01 01:50:22;;;;;;;28.42;18.65;;;8.10;94.30;;;;;;5067940;28;21284;-69
2022/05/01 01:52:47;;;;;;;28.33;18.25;;;8.10;94.30;;;;;;5069347;28;20190;-69
2022/05/01 01:55:15;;;;;;;28.85;18.63;;;8.10;94.40;;;;;;5070642;28;20236;-70
2022/05/01 01:57:41;;;;;;;26.88;18.13;;;8.10;94.40;;;;;;5068897;28;20183;-68
2022/05/01 02:00:08;;;;;;;31.27;18.80;;;8.10;94.40;;;;;;5063989;28;20187;-70
2022/05/01 02:02:38;;;;;;;31.60;18.90;;;8.00;94.40;;;;;;5069617;28;20281;-67
2022/05/01 02:05:05;;;;;;;27.48;18.35;;;8.00;94.40;;;;;;5070515;28;20270;-68
2022/05/01 02:07:31;;;;;;;29.35;19.10;;;8.00;94.50;;;;;;5069479;28;20187;-71
2022/05/01 02:09:57;;;;;;;31.42;19.25;;;8.00;94.50;;;;;;5069219;28;20193;-69
2022/05/01 02:12:23;;;;;;;32.55;20.15;;;8.00;94.60;;;;;;5065642;28;20208;-68
2022/05/01 02:14:49;;;;;;;30.77;19.77;;;7.90;94.60;;;;;;5049721;28;20667;-67
2022/05/01 02:17:15;;;;;;;32.78;20.52;;;7.90;94.60;;;;;;5064274;28;20666;-68
2022/05/01 02:19:41;;;;;;;30.52;19.25;;;7.90;94.70;;;;;;5069772;28;20313;-69
2022/05/01 02:22:07;;;;;;;29.95;19.20;;;7.90;94.70;;;;;;5067046;28;20182;-66
2022/05/01 02:24:34;;;;;;;33.05;19.10;;;7.90;94.70;;;;;;5070059;28;20170;-68
2022/05/01 02:27:00;;;;;;;30.30;19.58;;;7.80;94.70;;;;;;5067060;28;20269;-69
2022/05/01 02:29:27;;;;;;;26.42;18.10;;;7.80;94.70;;;;;;5067924;28;20190;-68
2022/05/01 02:31:53;;;;;;;30.05;19.75;;;7.80;94.80;;;;;;5069079;28;20230;-68
2022/05/01 02:34:22;;;;;;;35.05;20.92;;;7.80;94.80;;;;;;5066866;28;20221;-67
2022/05/01 02:36:48;;;;;;;34.10;19.55;;;7.80;94.80;;;;;;5066712;28;20209;-69
2022/05/01 02:39:14;;;;;;;27.67;18.65;;;7.70;94.80;;;;;;5069024;28;20198;-69
2022/05/01 02:41:40;;;;;;;29.35;18.52;;;7.70;94.90;;;;;;5068084;28;20195;-69
2022/05/01 02:44:05;;;;;;;29.17;18.27;;;7.70;94.90;;;;;;5069526;28;20321;-69
2022/05/01 02:46:32;;;;;;;32.53;19.58;;;7.70;94.90;;;;;;5064979;28;20676;-70
2022/05/01 02:48:58;;;;;;;26.67;18.95;;;7.70;94.90;;;;;;5069078;28;20186;-70
2022/05/01 02:51:24;;;;;;;29.90;18.52;;;7.60;94.90;;;;;;5067088;28;20194;-69
2022/05/01 02:53:49;;;;;;;28.55;18.38;;;7.60;95.00;;;;;;5068620;28;20205;-69
2022/05/01 02:56:15;;;;;;;29.65;19.13;;;7.60;95.00;;;;;;5067824;28;20186;-71
2022/05/01 02:58:41;;;;;;;30.70;19.30;;;7.60;95.00;;;;;;5063240;28;20552;-69
2022/05/01 03:01:07;;;;;;;27.50;18.60;;;7.60;95.10;;;;;;5066727;28;20183;-70
2022/05/01 03:03:33;;;;;;;27.15;17.77;;;7.60;95.10;;;;;;5069810;28;20182;-72
2022/05/01 03:05:59;;;;;;;31.05;18.02;;;7.60;95.10;;;;;;5068394;28;20557;-71
2022/05/01 03:08:25;;;;;;;29.90;18.65;;;7.60;95.10;;;;;;5066918;28;20644;-71
2022/05/01 03:10:51;;;;;;;31.83;18.13;;;7.60;95.10;;;;;;5068366;28;20201;-71
2022/05/01 03:13:17;;;;;;;29.85;18.63;;;7.50;95.10;;;;;;5068341;28;20241;-71
2022/05/01 03:15:43;;;;;;;29.15;17.95;;;7.50;95.10;;;;;;5069846;28;20206;-67
2022/05/01 03:23:37;;;;;;;29.65;17.90;;;7.40;95.10;;;;;;5063217;28;20202;-68
2022/05/01 03:26:03;;;;;;;28.63;18.38;;;7.40;95.10;;;;;;5069311;28;20190;-69
2022/05/01 03:28:28;;;;;;;30.02;17.95;;;7.40;95.10;;;;;;5067810;28;20191;-68
2022/05/01 03:30:54;;;;;;;28.90;17.88;;;7.40;95.10;;;;;;5067173;28;20221;-67
2022/05/01 03:33:21;;;;;;;29.00;18.10;;;7.40;95.20;;;;;;5066744;28;20209;-68
2022/05/01 03:35:50;;;;;;;26.33;17.48;;;7.40;95.20;;;;;;5046833;28;20190;-68
2022/05/01 03:38:17;;;;;;;28.00;18.10;;;7.40;95.20;;;;;;5064638;28;20693;-67
2022/05/01 03:40:47;;;;;;;29.50;17.48;;;7.40;95.20;;;;;;5064601;28;20571;-69
2022/05/01 03:43:17;;;;;;;30.27;17.98;;;7.40;95.20;;;;;;5066394;28;20288;-69
2022/05/01 03:45:43;;;;;;;30.27;17.92;;;7.30;95.20;;;;;;5067759;28;20198;-67
2022/05/01 03:48:09;;;;;;;29.95;18.65;;;7.30;95.20;;;;;;5065123;28;20194;-67
2022/05/01 03:50:35;;;;;;;28.17;19.20;;;7.30;95.30;;;;;;5065744;28;20605;-67
2022/05/01 03:53:04;;;;;;;26.27;17.52;;;7.30;95.30;;;;;;5067240;28;20261;-69
2022/05/01 03:55:31;;;;;;;28.85;18.67;;;7.30;95.30;;;;;;5068829;28;21450;-68
2022/05/01 03:57:58;;;;;;;31.38;19.52;;;7.30;95.40;;;;;;5066818;28;20228;-67
2022/05/01 04:00:24;;;;;;;28.88;18.35;;;7.30;95.40;;;;;;5065227;28;20273;-69
2022/05/01 04:02:52;;;;;;;29.60;19.40;;;7.30;95.40;;;;;;5060297;28;20750;-68
2022/05/01 04:05:18;;;;;;;29.05;19.02;;;7.20;95.40;;;;;;5066878;28;20643;-68
2022/05/01 04:07:43;;;;;;;27.27;18.48;;;7.20;95.50;;;;;;5066406;28;20182;-69
2022/05/01 04:10:10;;;;;;;30.63;18.85;;;7.20;95.50;;;;;;5065712;28;20249;-71
2022/05/01 04:12:40;;;;;;;29.92;17.85;;;7.20;95.60;;;;;;5066804;28;20690;-69
2022/05/01 04:15:09;;;;;;;30.65;18.90;;;7.20;95.60;;;;;;5064232;28;20259;-69
2022/05/01 04:17:39;;;;;;;27.75;18.70;;;7.20;95.70;;;;;;5066746;28;20194;-69
2022/05/01 04:20:13;;;;;;;26.55;18.27;;;7.20;95.70;;;;;;5067018;28;20207;-68
2022/05/01 04:22:40;;;;;;;30.27;19.40;;;7.20;95.80;;;;;;5063038;28;20200;-67
2022/05/01 04:25:18;;;;;;;25.02;18.10;;;7.20;95.80;;;;;;5067021;28;20210;-67
2022/05/01 04:27:49;;;;;;;27.85;18.05;;;7.20;95.80;;;;;;5064205;28;20186;-69
2022/05/01 04:30:16;;;;;;;35.58;18.30;;;7.20;95.80;;;;;;5065190;28;20594;-66
2022/05/01 04:33:00;;;;;;;44.53;20.23;;;7.20;95.90;;;;;;5063324;28;20187;-70
2022/05/01 04:35:32;;;;;;;32.13;19.35;;;7.20;95.90;;;;;;5066975;28;20198;-69
2022/05/01 04:38:02;;;;;;;28.88;18.90;;;7.20;96.00;;;;;;5065387;28;20218;-71
2022/05/01 04:40:35;;;;;;;30.80;19.17;;;7.20;96.00;;;;;;5067124;28;20178;-69
2022/05/01 04:43:22;;;;;;;26.73;17.70;;;7.30;96.10;;;;;;5066685;28;20182;-68
2022/05/01 04:45:50;;;;;;;28.33;18.70;;;7.30;96.20;;;;;;5068448;28;20186;-70
2022/05/01 04:48:17;;;;;;;29.15;19.13;;;7.30;96.20;;;;;;5064406;28;20187;-70
2022/05/01 04:50:44;;;;;;;29.13;19.52;;;7.40;96.30;;;;;;5071191;28;20198;-67
2022/05/01 04:53:11;;;;;;;29.20;19.58;;;7.40;96.30;;;;;;5070781;28;20230;-69
2022/05/01 04:55:41;;;;;;;32.63;20.20;;;7.50;96.40;;;;;;5070794;28;20730;-67
2022/05/01 04:58:08;;;;;;;35.83;20.20;;;7.50;96.50;;;;;;5068402;28;20240;-70
2022/05/01 05:00:34;;;;;;;29.85;20.20;;;7.60;96.60;;;;;;5065456;28;20286;-68
2022/05/01 05:02:59;;;;;;;32.03;20.23;;;7.60;96.60;;;;;;5069763;28;20270;-67
2022/05/01 05:05:27;;;;;;;29.80;19.63;;;7.60;96.70;;;;;;5070978;28;20236;-67
2022/05/01 05:07:54;;;;;;;32.63;20.83;;;7.70;96.80;;;;;;5068961;28;20236;-66
2022/05/01 05:10:20;;;;;;;31.55;19.20;;;7.70;96.80;;;;;;5070129;28;20189;-69
2022/05/01 05:12:48;;;;;;;31.42;20.52;;;7.80;96.90;;;;;;5064699;28;20658;-66
2022/05/01 05:15:16;;;;;;;29.70;19.48;;;7.80;96.90;;;;;;5066781;28;20257;-66
2022/05/01 05:17:45;;;;;;;33.75;20.10;;;7.90;97.00;;;;;;5067515;28;20210;-66
2022/05/01 05:20:12;;;;;;;36.15;22.35;;;7.90;97.10;;;;;;5067389;28;20253;-67
2022/05/01 05:22:39;;;;;;;39.20;21.58;;;8.00;97.20;;;;;;5064845;28;20195;-67
2022/05/01 05:25:09;;;;;;;34.95;21.90;;;8.00;97.30;;;;;;5067638;28;20186;-69
2022/05/01 05:27:34;;;;;;;29.60;20.85;;;8.10;97.30;;;;;;5060617;28;20191;-67
2022/05/01 05:30:00;;;;;;;29.80;20.30;;;8.20;97.50;;;;;;5070242;28;20229;-68
2022/05/01 05:32:26;;;;;;;35.30;20.77;;;8.20;97.50;;;;;;5068401;28;20183;-67
2022/05/01 05:34:52;;;;;;;27.30;19.20;;;8.30;97.60;;;;;;5066025;28;20205;-69
2022/05/01 05:37:19;;;;;;;31.10;19.27;;;8.30;97.60;;;;;;5066379;28;20187;-67
2022/05/01 05:39:45;;;;;;;32.80;21.13;;;8.40;97.70;;;;;;5064788;28;20183;-67
2022/05/01 05:42:11;;;;;;;32.90;19.73;;;8.40;97.70;;;;;;5063953;28;20187;-68
2022/05/01 05:44:39;;;;;;;29.45;20.50;;;8.50;97.80;;;;;;5070139;28;20265;-69
2022/05/01 05:47:05;;;;;;;30.17;19.50;;;8.50;97.90;;;;;;5068574;28;20605;-67
2022/05/01 05:49:31;;;;;;;31.40;19.27;;;8.60;97.90;;;;;;5070748;28;20182;-68
2022/05/01 05:51:58;;;;;;;30.20;19.67;;;8.70;98.00;;;;;;5068207;28;20595;-69
2022/05/01 05:54:23;;;;;;;29.42;18.38;;;8.70;98.10;;;;;;5068776;28;20202;-67
2022/05/01 05:56:49;;;;;;;29.48;18.80;;;8.80;98.10;;;;;;5067127;28;20202;-68
2022/05/01 05:59:16;;;;;;;26.42;18.85;;;8.80;98.20;;;;;;5067657;28;20178;-67
2022/05/01 06:01:42;;;;;;;26.70;18.52;;;8.80;98.20;;;;;;5066436;28;20572;-65
2022/05/01 06:04:07;;;;;;;28.98;19.42;;;8.90;98.30;;;;;;5067271;28;20193;-67
2022/05/01 06:06:34;;;;;;;28.70;18.80;;;8.90;98.30;;;;;;5069231;28;20190;-68
2022/05/01 06:09:00;;;;;;;33.47;19.30;;;9.00;98.40;;;;;;5067780;28;20189;-67
2022/05/01 06:11:27;;;;;;;32.67;19.65;;;9.10;98.50;;;;;;5070019;28;20190;-69
2022/05/01 06:13:53;;;;;;;27.65;19.10;;;9.10;98.50;;;;;;5066868;28;20241;-67
2022/05/01 06:16:19;;;;;;;28.45;19.05;;;9.20;98.60;;;;;;5065138;28;20218;-68
2022/05/01 06:18:45;;;;;;;29.05;19.95;;;9.20;98.70;;;;;;5066302;28;20663;-69
2022/05/01 06:21:11;;;;;;;30.13;18.85;;;9.30;98.70;;;;;;5060865;28;20273;-67
2022/05/01 06:23:38;;;;;;;29.40;19.90;;;9.40;98.80;;;;;;5061368;28;20209;-67
2022/05/01 06:26:05;;;;;;;32.90;18.95;;;9.40;98.80;;;;;;5062731;28;20218;-68
2022/05/01 06:28:31;;;;;;;30.65;18.60;;;9.50;98.90;;;;;;5069295;28;20197;-67
2022/05/01 06:30:58;;;;;;;25.85;17.52;;;9.60;99.00;;;;;;5065828;28;20230;-67
2022/05/01 06:33:24;;;;;;;29.15;19.10;;;9.60;99.00;;;;;;5069944;28;20206;-69
2022/05/01 06:35:53;;;;;;;29.02;19.05;;;9.70;99.10;;;;;;5067030;28;20274;-67
2022/05/01 06:38:19;;;;;;;28.00;19.17;;;9.70;99.10;;;;;;5068434;28;20263;-67
2022/05/01 06:40:46;;;;;;;32.22;19.08;;;9.80;99.10;;;;;;5065954;28;20703;-68
2022/05/01 06:43:13;;;;;;;27.52;18.67;;;9.90;99.20;;;;;;5065164;28;20268;-68
2022/05/01 06:45:39;;;;;;;30.65;19.95;;;10.00;99.20;;;;;;5067570;28;20199;-69
2022/05/01 06:48:07;;;;;;;24.85;17.10;;;10.00;99.20;;;;;;5069486;28;20184;-68
2022/05/01 06:50:33;;;;;;;23.45;16.23;;;10.10;99.20;;;;;;5066546;28;20195;-69
2022/05/01 06:52:58;;;;;;;25.20;17.38;;;10.20;99.20;;;;;;5070171;28;20235;-69
2022/05/01 06:55:25;;;;;;;28.25;18.15;;;10.30;99.20;;;;;;5067877;28;20213;-68
2022/05/01 06:57:55;;;;;;;31.73;19.17;;;10.40;99.10;;;;;;5069814;28;20190;-69
2022/05/01 07:00:22;;;;;;;32.05;21.80;;;10.40;99.00;;;;;;5066148;28;20187;-70
2022/05/01 07:02:49;;;;;;;30.85;19.60;;;10.50;99.00;;;;;;5069558;28;20557;-68
2022/05/01 07:05:15;;;;;;;26.70;16.95;;;10.60;98.90;;;;;;5066694;28;20182;-68
2022/05/01 07:07:41;;;;;;;26.40;17.45;;;10.60;98.80;;;;;;5067071;28;20182;-67
2022/05/01 07:10:08;;;;;;;26.63;18.35;;;10.70;98.70;;;;;;5064195;28;20194;-68
2022/05/01 07:12:34;;;;;;;24.48;17.10;;;10.70;98.60;;;;;;5067372;28;20198;-68
2022/05/01 07:15:00;;;;;;;27.83;18.45;;;10.80;98.50;;;;;;5067318;28;20567;-68
2022/05/01 07:17:26;;;;;;;25.77;17.05;;;10.80;98.30;;;;;;5067253;28;20182;-68
2022/05/01 07:19:52;;;;;;;29.08;17.00;;;10.90;98.20;;;;;;5063322;28;20666;-66
2022/05/01 07:22:17;;;;;;;24.80;16.10;;;10.90;98.10;;;;;;5066152;28;20183;-68
2022/05/01 07:24:43;;;;;;;24.88;17.10;;;10.90;98.00;;;;;;5065468;28;20191;-69
2022/05/01 07:27:09;;;;;;;30.50;19.48;;;11.00;97.90;;;;;;5064990;28;20183;-69
2022/05/01 07:29:35;;;;;;;31.17;16.98;;;11.10;97.80;;;;;;5066357;28;20191;-68
2022/05/01 07:32:01;;;;;;;25.75;17.08;;;11.10;97.70;;;;;;5065248;28;20228;-66
2022/05/01 07:34:27;;;;;;;28.23;18.35;;;11.20;97.60;;;;;;5029984;28;20415;-67
2022/05/01 07:36:52;;;;;;;26.20;17.87;;;11.90;95.70;;;;;;5067662;28;20439;-68
2022/05/01 07:39:18;;;;;;;23.90;15.63;;;12.40;94.30;;;;;;5066826;28;20202;-68
2022/05/01 07:41:44;;;;;;;19.98;13.98;;;12.20;94.80;;;;;;5065725;28;20236;-70
2022/05/01 07:44:11;;;;;;;25.60;16.58;;;12.00;95.20;;;;;;5065830;28;20179;-68
2022/05/01 07:46:38;;;;;;;20.08;15.63;;;11.90;95.40;;;;;;5064808;28;20185;-66
2022/05/01 07:49:05;;;;;;;24.05;14.63;;;11.90;95.40;;;;;;5068546;28;20194;-67
2022/05/01 07:51:31;;;;;;;17.58;13.55;;;11.90;95.40;;;;;;5061384;28;20187;-71
2022/05/01 07:53:58;;;;;;;23.33;15.02;;;11.90;95.30;;;;;;5064311;28;20597;-68
2022/05/01 07:56:28;;;;;;;24.98;15.73;;;11.80;95.20;;;;;;5066272;28;20277;-67
2022/05/01 07:58:54;;;;;;;22.67;14.55;;;11.80;95.00;;;;;;5066971;28;20183;-69
2022/05/01 08:01:21;;;;;;;20.35;13.48;;;11.80;94.90;;;;;;5060442;28;20566;-68
2022/05/01 08:06:31;;;;;;;20.75;14.13;;;11.80;94.50;;;;;;5063359;28;20182;-67
2022/05/01 08:08:57;;;;;;;18.35;14.32;;;11.80;94.30;;;;;;5064157;28;20195;-67
2022/05/01 08:11:23;;;;;;;20.42;14.35;;;11.80;94.20;;;;;;5065529;28;20236;-66
2022/05/01 08:13:49;;;;;;;19.95;14.68;;;11.80;94.00;;;;;;5065850;28;20243;-68
2022/05/01 08:16:17;;;;;;;23.17;14.27;;;11.80;93.90;;;;;;5065751;28;20178;-68
2022/05/01 08:21:29;;;;;;;23.05;15.25;;;11.80;93.60;;;;;;5066151;28;20179;-68
2022/05/01 08:23:54;;;;;;;22.98;15.88;;;11.90;93.60;;;;;;5066293;28;20326;-67
2022/05/01 08:26:21;;;;;;;20.77;14.65;;;12.00;93.60;;;;;;5070595;28;20655;-68
2022/05/01 08:28:50;;;;;;;27.42;16.20;;;12.20;93.40;;;;;;5072440;28;20186;-66
2022/05/01 08:31:15;;;;;;;22.25;15.55;;;12.30;93.30;;;;;;5069130;28;20230;-68
2022/05/01 08:33:41;;;;;;;24.77;15.50;;;12.50;93.00;;;;;;5071879;28;20279;-68
2022/05/01 08:36:07;;;;;;;;;;;12.60;92.90;;;;;;5068068;28;20101;-68
2022/05/01 08:38:35;;;;;;;23.80;14.32;;;12.70;92.80;;;;;;5071166;28;20216;-69
2022/05/01 08:41:02;;;;;;;20.25;14.52;;;12.70;92.70;;;;;;5070096;28;20194;-68
2022/05/01 08:43:28;;;;;;;18.88;13.50;;;12.90;92.60;;;;;;5072061;28;20226;-67
2022/05/01 08:45:53;;;;;;;18.42;14.48;;;13.10;92.50;;;;;;5069641;28;20559;-67
2022/05/01 08:48:29;;;;;;;19.55;14.45;;;13.30;92.10;;;;;;5070338;28;20169;-67
2022/05/01 08:50:56;;;;;;;17.50;12.77;;;13.60;91.90;;;;;;5070218;28;20182;-68
2022/05/01 08:53:23;;;;;;;22.38;14.75;;;13.80;91.40;;;;;;5069589;28;20570;-67
2022/05/01 08:55:50;;;;;;;21.80;15.73;;;14.00;90.90;;;;;;5070680;28;20191;-67
2022/05/01 08:58:16;;;;;;;19.50;14.93;;;14.10;90.40;;;;;;5068373;28;20198;-67
2022/05/01 09:00:43;;;;;;;;;;;14.30;90.10;;;;;;5069995;28;20416;-69
2022/05/01 09:03:09;;;;;;;16.15;13.07;;;14.60;90.50;;;;;;5069732;28;21003;-68
2022/05/01 09:05:34;;;;;;;16.15;12.02;;;16.70;76.40;;;;;;5067025;28;20434;-68
2022/05/01 09:08:00;;;;;;;;;;;18.80;64.20;;;;;;5070784;28;20152;-68
2022/05/01 09:10:26;;;;;;;;;;;18.90;68.30;;;;;;5069663;28;20430;-68
2022/05/01 09:12:55;;;;;;;12.35;8.85;;;21.00;55.10;;;;;;5068923;28;20479;-68
2022/05/01 09:15:32;;;;;;;13.30;10.10;;;22.60;46.90;;;;;;5068220;28;21189;-68
2022/05/01 09:18:08;;;;;;;13.38;9.30;;;23.90;44.10;;;;;;5067000;28;20779;-66
2022/05/01 09:21:01;;;;;;;10.40;8.63;;;25.00;39.50;;;;;;5067051;28;20447;-67
2022/05/01 09:23:40;;;;;;;;;;;25.60;37.70;;;;;;5072073;28;20883;-70
2022/05/01 09:26:08;;;;;;;;;;;26.00;36.80;;;;;;5066528;28;19947;-68
2022/05/01 09:28:33;;;;;;;;;;;26.30;36.00;;;;;;5071895;28;20255;-69
2022/05/01 09:30:59;;;;;;;;;;;26.80;35.10;;;;;;5068400;28;19989;-68
2022/05/01 09:33:25;;;;;;;;;;;27.20;33.40;;;;;;5070971;28;19912;-68
2022/05/01 09:35:51;;;;;;;;;;;27.00;33.30;;;;;;5068158;28;20011;-67
2022/05/01 09:38:17;;;;;;;;;;;26.50;34.40;;;;;;5070393;28;20324;-67
2022/05/01 09:40:48;;;;;;;;;;;26.10;34.10;;;;;;5069398;28;20470;-68
2022/05/01 09:43:34;;;;;;;;;;;25.50;35.20;;;;;;5070530;28;19912;-68
2022/05/01 09:46:22;;;;;;;12.00;8.38;;;25.10;36.20;;;;;;5067310;28;20440;-67
2022/05/01 09:49:01;;;;;;;11.40;7.70;;;24.70;37.30;;;;;;5068120;28;20438;-64
2022/05/01 09:51:28;;;;;;;9.65;7.30;;;24.50;38.00;;;;;;5068927;28;20411;-65
2022/05/01 09:53:55;;;;;;;10.37;7.77;;;24.10;37.30;;;;;;5065692;28;20428;-62
2022/05/01 09:56:21;;;;;;;12.38;7.93;;;23.70;38.50;;;;;;5067211;28;20418;-63
2022/05/01 09:58:59;;;;;;;10.07;7.70;;;23.20;39.50;;;;;;5062237;28;20446;-62
2022/05/01 10:01:25;;;;;;;10.05;7.60;;;22.80;39.90;;;;;;5063137;28;20415;-62
2022/05/01 10:03:52;;;;;;;9.88;7.47;;;22.30;40.70;;;;;;5067674;28;20195;-64
2022/05/01 10:06:19;;;;;;;10.80;8.00;;;21.50;42.40;;;;;;5065920;28;20415;-66
2022/05/01 10:08:46;;;;;;;10.18;7.85;;;21.40;42.10;;;;;;5064020;28;20412;-63
2022/05/01 10:11:14;;;;;;;10.07;7.80;;;21.20;41.20;;;;;;5067022;28;20480;-64
2022/05/01 10:13:41;;;;;;;9.73;7.35;;;21.10;41.80;;;;;;5065412;28;20423;-63
2022/05/01 10:16:10;;;;;;;10.98;7.30;;;21.10;41.80;;;;;;5034805;28;20947;-63
2022/05/01 10:18:37;;;;;;;10.20;7.72;;;21.10;41.80;;;;;;5066788;28;20452;-64
2022/05/01 10:21:04;;;;;;;12.95;8.13;;;21.20;42.60;;;;;;5068622;28;20422;-66
2022/05/01 10:23:31;;;;;;;10.27;7.57;;;21.50;42.60;;;;;;5068482;28;20417;-63
2022/05/01 10:26:00;;;;;;;11.27;7.88;;;21.70;42.60;;;;;;5070275;28;20456;-65
2022/05/01 10:28:50;;;;;;;9.18;6.70;;;22.00;41.90;;;;;;5067514;28;20919;-63
2022/05/01 10:34:49;;;;;;;10.13;7.28;;;22.40;39.40;;;;;;5070481;28;20423;-66
2022/05/01 10:37:27;;;;;;;8.82;6.72;;;22.40;39.90;;;;;;5064507;28;20407;-65
2022/05/01 10:39:54;;;;;;;9.77;6.60;;;22.30;39.40;;;;;;5064533;28;20412;-62
2022/05/01 10:42:42;;;;;;;9.18;6.20;;;22.10;39.80;;;;;;5067515;28;20501;-66
2022/05/01 10:45:28;;;;;;;7.85;6.25;;;22.00;40.20;;;;;;5067901;28;20890;-63
2022/05/01 10:47:55;;;;;;;9.55;6.40;;;21.90;39.20;;;;;;5060994;28;20508;-67
2022/05/01 10:50:23;;;;;;;7.97;6.38;;;21.80;39.80;;;;;;5065805;28;20445;-65
2022/05/01 10:53:09;;;;;;;7.68;6.13;;;22.00;39.80;;;;;;5067160;28;20964;-64
2022/05/01 10:55:51;;;;;;;7.70;6.22;;;22.20;39.80;;;;;;5066002;28;20427;-64
2022/05/01 10:58:27;;;;;;;8.50;6.40;;;22.30;39.70;;;;;;5065129;28;20431;-64
2022/05/01 11:00:54;;;;;;;7.35;6.22;;;22.40;39.30;;;;;;5067314;28;20450;-65
2022/05/01 11:03:28;;;;;;;8.75;6.22;;;22.60;38.90;;;;;;5046313;28;20439;-65
2022/05/01 11:06:08;;;;;;;9.80;6.78;;;22.80;39.20;;;;;;5064063;28;20442;-66
2022/05/01 11:08:36;;;;;;;8.23;6.78;;;22.90;38.30;;;;;;5063990;28;20426;-64
2022/05/01 11:11:08;;;;;;;11.02;7.15;;;23.00;38.00;;;;;;5067462;28;20407;-66
2022/05/01 11:13:37;;;;;;;7.83;6.70;;;23.20;37.30;;;;;;5065929;28;20938;-66
2022/05/01 11:16:07;;;;;;;8.60;6.20;;;24.30;35.90;;;;;;5067861;28;20392;-65
2022/05/01 11:18:35;;;;;;;7.73;6.07;;;25.40;34.50;;;;;;5044471;28;20929;-66
2022/05/01 11:21:19;;;;;;;10.88;6.47;;;26.30;31.80;;;;;;5066827;28;20465;-67
2022/05/01 11:23:46;;;;;;;8.95;6.10;;;26.90;31.40;;;;;;5065652;28;20415;-65
2022/05/01 11:26:17;;;;;;;8.63;6.13;;;27.20;30.90;;;;;;5063125;28;20440;-64
2022/05/01 11:28:48;;;;;;;8.05;6.28;;;27.60;30.40;;;;;;5067410;28;20418;-65
2022/05/01 11:31:36;;;;;;;7.68;5.70;;;28.20;29.80;;;;;;5067567;28;20481;-65
2022/05/01 11:34:17;;;;;;;10.30;5.50;;;28.70;28.90;;;;;;5065500;28;20431;-65
2022/05/01 11:37:01;;;;;;;8.15;5.70;;;29.00;28.60;;;;;;5063954;28;20426;-63
2022/05/01 11:39:43;;;;;;;7.65;5.60;;;29.20;28.30;;;;;;5066216;28;20875;-64
2022/05/01 11:42:24;;;;;;;8.05;5.55;;;29.40;28.50;;;;;;5063592;28;20419;-62
2022/05/01 11:44:55;;;;;;;8.25;5.90;;;29.60;27.90;;;;;;5068037;28;20416;-66
2022/05/01 11:47:41;;;;;;;10.43;6.93;;;29.70;27.70;;;;;;5061530;28;20776;-66
2022/05/01 11:50:16;;;;;;;9.52;6.80;;;29.90;28.00;;;;;;5061933;28;20855;-67
2022/05/01 11:52:46;;;;;;;6.70;5.10;;;30.00;27.50;;;;;;5063941;28;20761;-68
2022/05/01 11:55:13;;;;;;;7.83;5.00;;;30.20;27.50;;;;;;5066090;28;20896;-65
2022/05/01 12:03:15;;;;;;;7.95;5.68;;;29.80;26.60;;;;;;5062704;28;20434;-66
2022/05/01 12:05:45;;;;;;;8.68;5.57;;;29.40;27.40;;;;;;5063691;28;20405;-67
2022/05/01 12:08:20;;;;;;;7.00;5.87;;;28.90;27.70;;;;;;5064353;28;20428;-67
2022/05/01 12:10:46;;;;;;;8.90;6.07;;;28.50;28.40;;;;;;5066110;28;20468;-65
2022/05/01 12:13:23;;;;;;;9.35;5.40;;;28.10;28.50;;;;;;5063456;28;20419;-65
2022/05/01 12:15:50;;;;;;;6.90;5.30;;;27.70;28.20;;;;;;5065111;28;20911;-66
2022/05/01 12:18:17;;;;;;;8.52;5.32;;;27.40;28.80;;;;;;5062139;28;20994;-68
2022/05/01 12:20:42;;;;;;;8.98;6.00;;;27.10;29.60;;;;;;5046740;28;20418;-67
2022/05/01 12:23:16;;;;;;;10.60;5.70;;;26.90;29.00;;;;;;5064470;28;20231;-67
2022/05/01 12:25:44;;;;;;;7.75;5.78;;;26.20;30.10;;;;;;5065093;28;20281;-66
2022/05/01 12:28:11;;;;;;;10.40;6.22;;;25.60;31.50;;;;;;5057967;28;20248;-67
2022/05/01 12:30:38;;;;;;;6.65;5.50;;;25.20;32.00;;;;;;5065318;28;20301;-65
2022/05/01 12:33:04;;;;;;;;;;;24.80;32.50;;;;;;5065268;28;20032;-64
2022/05/01 12:35:48;;;;;;;;;;;24.50;33.10;;;;;;5067224;28;19923;-66
2022/05/01 12:38:14;;;;;;;;;;;24.20;33.70;;;;;;5065710;28;19914;-65
2022/05/01 12:46:24;;;;;;;;;;;23.70;34.90;;;;;;5064666;28;19952;-67
2022/05/01 12:48:51;;;;;;;9.55;6.32;;;23.50;35.20;;;;;;5061352;28;20151;-64
2022/05/01 12:51:17;;;;;;;9.32;6.47;;;23.20;35.40;;;;;;5063412;28;20424;-68
2022/05/01 12:53:42;;;;;;;9.15;6.70;;;23.70;34.30;;;;;;5066484;28;20434;-65
2022/05/01 12:56:22;;;;;;;7.28;5.93;;;23.90;34.30;;;;;;5064346;28;20399;-65
2022/05/01 12:58:49;;;;;;;9.35;6.25;;;24.10;34.10;;;;;;5064288;28;20430;-66
2022/05/01 13:01:23;;;;;;;10.13;6.53;;;24.20;34.00;;;;;;5063503;28;20396;-65
2022/05/01 13:03:49;;;;;;;9.02;6.25;;;24.30;33.50;;;;;;5063119;28;20411;-67
2022/05/01 13:06:17;;;;;;;9.77;6.10;;;24.40;34.00;;;;;;5061842;28;20486;-66
2022/05/01 13:09:09;;;;;;;8.77;6.97;;;24.40;33.80;;;;;;5064541;28;20813;-66
2022/05/01 13:11:36;;;;;;;8.80;6.43;;;24.30;33.70;;;;;;5063092;28;20444;-63
2022/05/01 13:14:04;;;;;;;8.30;6.50;;;24.20;34.40;;;;;;5069546;28;20503;-66
2022/05/01 13:16:30;;;;;;;10.00;6.40;;;24.30;33.80;;;;;;5067406;28;20423;-66
2022/05/01 13:18:57;;;;;;;9.53;6.57;;;24.20;34.00;;;;;;5070143;28;20480;-65
2022/05/01 13:21:27;;;;;;;8.98;6.38;;;24.10;34.10;;;;;;5066796;28;20462;-65